Time;durP1;ratioP1;P1;durP2;ratioP2;P2;SDS_P1;SDS_P2;PMS_P1;PMS_P2;Temp;Humidity;BMP_temperature;BMP_pressure;BME280_temperature;BME280_humidity;BME280_pressure;Samples;Min_cycle;Max_cycle;Signal;HPM_P1;HPM_P2
2022/02/17 00:02:26;;;;;;;63.05;7.75;;;;;;;9.68;97.67;99169.34;5029796;28;20333;-45
2022/02/17 00:04:52;;;;;;;58.50;7.50;;;;;;;9.73;97.64;99154.44;5012902;28;20037;-46
2022/02/17 00:07:17;;;;;;;54.50;7.30;;;;;;;9.73;97.17;99171.38;5030997;28;20022;-46
2022/02/17 00:09:42;;;;;;;56.78;7.63;;;;;;;9.76;96.64;99159.38;5030361;28;20128;-48
2022/02/17 00:12:08;;;;;;;56.47;7.03;;;;;;;9.76;96.63;99160.19;5030767;28;20026;-47
2022/02/17 00:14:33;;;;;;;53.47;6.60;;;;;;;9.77;96.66;99194.09;5030690;28;20518;-48
2022/02/17 00:16:59;;;;;;;48.63;6.10;;;;;;;9.79;97.12;99269.91;5029350;28;20033;-51
2022/02/17 00:19:24;;;;;;;57.28;7.18;;;;;;;9.64;98.14;99227.25;5028881;28;20434;-52
2022/02/17 00:21:49;;;;;;;57.88;6.50;;;;;;;9.54;98.99;99234.13;5037738;28;20040;-56
2022/02/17 00:24:19;;;;;;;52.45;5.32;;;;;;;9.30;97.85;99225.75;5038163;28;20123;-55
2022/02/17 00:26:44;;;;;;;40.80;5.55;;;;;;;9.26;94.94;99213.78;5035455;28;20108;-49
2022/02/17 00:29:10;;;;;;;41.65;5.00;;;;;;;9.18;93.39;99222.09;5035316;28;20068;-52
2022/02/17 00:31:36;;;;;;;44.17;5.15;;;;;;;9.13;94.43;99219.22;5035471;28;20032;-50
2022/02/17 00:34:02;;;;;;;40.58;4.90;;;;;;;9.06;92.15;99237.19;5034389;28;20041;-53
2022/02/17 00:36:27;;;;;;;32.15;3.78;;;;;;;9.06;93.75;99234.50;5033315;28;20034;-53
2022/02/17 00:38:53;;;;;;;33.13;4.57;;;;;;;9.04;94.21;99237.41;5033755;28;20496;-50
2022/02/17 00:41:19;;;;;;;41.88;4.55;;;;;;;9.00;94.67;99230.81;5034012;28;20112;-51
2022/02/17 00:43:45;;;;;;;41.85;4.53;;;;;;;8.95;95.33;99244.88;5033786;28;20479;-49
2022/02/17 00:46:10;;;;;;;39.45;4.78;;;;;;;8.85;94.60;99243.66;5033628;28;20037;-51
2022/02/17 00:48:36;;;;;;;38.33;4.00;;;;;;;8.80;94.38;99249.66;5034267;28;20051;-51
2022/02/17 00:51:03;;;;;;;33.30;3.85;;;;;;;8.73;94.44;99240.78;5033743;28;20180;-52
2022/02/17 00:53:28;;;;;;;38.50;3.78;;;;;;;8.69;95.16;99261.00;5033738;28;20032;-48
2022/02/17 00:55:54;;;;;;;44.80;4.35;;;;;;;8.68;95.95;99259.38;5033528;28;20025;-48
2022/02/17 00:58:19;;;;;;;34.97;4.03;;;;;;;8.65;96.47;99252.56;5034020;28;20080;-50
2022/02/17 01:00:44;;;;;;;59.33;5.65;;;;;;;8.67;96.70;99268.47;5033755;28;20117;-48
2022/02/17 01:03:10;;;;;;;56.03;6.00;;;;;;;8.69;96.51;99271.72;5033613;28;20049;-46
2022/02/17 01:05:35;;;;;;;50.72;5.18;;;;;;;8.67;95.76;99280.00;5032096;28;20112;-47
2022/02/17 01:08:01;;;;;;;52.95;5.63;;;;;;;8.65;95.81;99279.38;5030906;28;20021;-51
2022/02/17 01:10:27;;;;;;;53.50;5.57;;;;;;;8.68;94.90;99288.88;5033682;28;20021;-51
2022/02/17 01:12:53;;;;;;;48.05;5.47;;;;;;;8.70;94.45;99294.84;5033507;28;20040;-48
2022/02/17 01:15:18;;;;;;;48.00;4.93;;;;;;;8.72;94.19;99282.06;5031616;28;20029;-47
2022/02/17 01:17:44;;;;;;;53.78;6.07;;;;;;;8.75;93.37;99287.00;5032155;28;20040;-47
2022/02/17 01:20:10;;;;;;;39.95;4.72;;;;;;;8.74;93.29;99290.72;5003210;28;20088;-48
2022/02/17 01:22:36;;;;;;;38.45;4.38;;;;;;;8.75;93.65;99313.84;5030235;28;20025;-49
2022/02/17 01:25:02;;;;;;;66.13;6.97;;;;;;;8.75;93.79;99311.97;5033211;28;20029;-48
2022/02/17 01:27:27;;;;;;;53.42;5.97;;;;;;;8.77;93.57;99322.50;5033889;28;20065;-48
2022/02/17 01:29:52;;;;;;;45.80;5.38;;;;;;;8.81;92.91;99323.72;5032948;28;20547;-49
2022/02/17 01:32:18;;;;;;;50.88;5.80;;;;;;;8.84;91.93;99309.88;5030962;28;20048;-48
2022/02/17 01:34:43;;;;;;;71.28;6.25;;;;;;;8.82;92.09;99325.41;5031929;28;20032;-48
2022/02/17 01:37:09;;;;;;;45.53;5.00;;;;;;;8.82;91.17;99357.59;5033176;28;20061;-48
2022/02/17 01:39:34;;;;;;;48.85;5.18;;;;;;;8.84;90.50;99335.91;5032799;28;20045;-48
2022/02/17 01:41:59;;;;;;;43.90;5.32;;;;;;;8.81;89.67;99326.41;5032519;28;20110;-51
2022/02/17 01:44:27;;;;;;;48.42;6.18;;;;;;;8.78;88.43;99340.25;5032976;28;20377;-46
2022/02/17 01:46:52;;;;;;;43.40;5.20;;;;;;;8.76;87.39;99342.28;5032250;28;20038;-48
2022/02/17 01:49:17;;;;;;;40.13;5.65;;;;;;;8.72;85.82;99341.91;5031536;28;20036;-48
2022/02/17 01:51:43;;;;;;;37.35;4.25;;;;;;;8.79;83.52;99363.34;5032354;28;20049;-47
2022/02/17 01:54:08;;;;;;;33.10;4.43;;;;;;;8.81;82.56;99358.59;5031910;28;20400;-46
2022/02/17 01:56:38;;;;;;;41.90;4.35;;;;;;;8.77;81.75;99358.19;5032012;28;20091;-48
2022/02/17 01:59:06;;;;;;;38.22;4.30;;;;;;;8.80;81.33;99338.19;5030899;28;20061;-46
2022/02/17 02:01:34;;;;;;;42.35;5.80;;;;;;;8.79;79.31;99388.34;5032200;28;20041;-48
2022/02/17 02:04:00;;;;;;;41.38;4.88;;;;;;;8.77;80.58;99397.63;5030517;28;20032;-49
2022/02/17 02:06:26;;;;;;;45.53;6.00;;;;;;;8.68;81.77;99401.50;5033152;28;20033;-47
2022/02/17 02:08:52;;;;;;;55.67;6.22;;;;;;;8.57;84.14;99403.75;5032334;28;20040;-47
2022/02/17 02:11:18;;;;;;;57.83;5.78;;;;;;;8.54;85.37;99408.72;5031737;28;20197;-47
2022/02/17 02:13:43;;;;;;;59.45;6.60;;;;;;;8.50;86.03;99396.75;5030498;28;20065;-47
2022/02/17 02:16:08;;;;;;;43.65;5.45;;;;;;;8.48;86.33;99421.09;5032019;28;20030;-47
2022/02/17 02:18:34;;;;;;;55.35;6.78;;;;;;;8.46;85.90;99420.47;5031884;28;20033;-46
2022/02/17 02:20:59;;;;;;;47.13;5.05;;;;;;;8.43;85.67;99442.31;5031962;28;20515;-47
2022/02/17 02:23:25;;;;;;;51.90;5.18;;;;;;;8.47;83.84;99422.09;5031263;28;20025;-51
2022/02/17 02:25:52;;;;;;;50.15;6.65;;;;;;;8.46;82.60;99454.50;5032306;28;20065;-47
2022/02/17 02:28:22;;;;;;;56.53;5.78;;;;;;;8.44;82.80;99449.31;5032215;28;20033;-48
2022/02/17 02:30:49;;;;;;;40.83;4.65;;;;;;;8.43;80.56;99442.31;5031462;28;20611;-47
2022/02/17 02:33:15;;;;;;;36.38;4.07;;;;;;;8.48;77.38;99474.72;5031962;28;20071;-48
2022/02/17 02:35:41;;;;;;;36.58;4.63;;;;;;;8.51;76.10;99476.16;5011137;28;20053;-48
2022/02/17 02:38:07;;;;;;;42.78;5.43;;;;;;;8.52;74.63;99480.50;5028525;28;20510;-50
2022/02/17 02:40:33;;;;;;;34.13;4.07;;;;;;;8.57;74.69;99531.66;5031877;28;20053;-47
2022/02/17 02:42:58;;;;;;;43.15;4.95;;;;;;;8.55;74.03;99509.59;5031699;28;20380;-49
2022/02/17 02:45:24;;;;;;;38.72;5.15;;;;;;;8.56;73.51;99524.66;5031864;28;20022;-46
2022/02/17 02:47:49;;;;;;;41.38;5.10;;;;;;;8.59;72.91;99534.16;5031620;28;20091;-49
2022/02/17 02:50:14;;;;;;;41.95;5.20;;;;;;;8.57;73.20;99521.75;5030953;28;20028;-49
2022/02/17 02:52:40;;;;;;;47.90;5.68;;;;;;;8.51;73.03;99511.84;5030907;28;20163;-51
2022/02/17 02:55:05;;;;;;;32.47;5.93;;;;;;;8.50;73.21;99510.19;5030769;28;20021;-45
2022/02/17 02:57:31;;;;;;;42.53;5.05;;;;;;;8.50;72.77;99526.25;5030092;28;20029;-48
2022/02/17 02:59:56;;;;;;;49.22;6.10;;;;;;;8.51;72.51;99519.91;5031380;28;20122;-46
2022/02/17 03:02:21;;;;;;;45.65;5.22;;;;;;;8.56;72.43;99517.44;5031551;28;20029;-48
2022/02/17 03:04:47;;;;;;;49.28;5.32;;;;;;;8.52;73.72;99537.63;5031712;28;20030;-48
2022/02/17 03:07:12;;;;;;;56.60;6.32;;;;;;;8.48;73.77;99533.72;5068789;22;20050;-47
2022/02/17 03:09:37;;;;;;;44.05;5.53;;;;;;;8.45;74.27;99547.50;5048331;28;20021;-44
2022/02/17 03:12:03;;;;;;;48.15;5.32;;;;;;;8.40;74.45;99536.56;5046526;28;20472;-50
2022/02/17 03:14:28;;;;;;;40.58;5.95;;;;;;;8.40;75.07;99547.28;5050872;28;20025;-47
2022/02/17 03:16:54;;;;;;;55.35;6.68;;;;;;;8.38;76.12;99560.03;5050955;28;20114;-48
2022/02/17 03:19:19;;;;;;;54.50;5.55;;;;;;;8.34;76.32;99566.78;5050590;28;20049;-45
2022/02/17 03:21:44;;;;;;;47.05;7.15;;;;;;;8.28;76.50;99560.38;5017500;28;20078;-46
2022/02/17 03:24:10;;;;;;;51.25;5.63;;;;;;;8.27;76.78;99566.78;5051737;28;20028;-46
2022/02/17 03:26:35;;;;;;;42.63;6.00;;;;;;;8.26;76.93;99561.59;5050986;28;20024;-46
2022/02/17 03:29:00;;;;;;;46.28;5.85;;;;;;;8.23;77.15;99580.75;5050699;28;20054;-46
2022/02/17 03:31:26;;;;;;;47.85;6.05;;;;;;;8.28;76.56;99575.63;5050813;28;20029;-46
2022/02/17 03:33:52;;;;;;;60.80;6.47;;;;;;;8.28;76.74;99584.50;5050904;28;20037;-45
2022/02/17 03:36:17;;;;;;;57.42;7.07;;;;;;;8.26;77.14;99580.38;5032843;28;20076;-50
2022/02/17 03:38:42;;;;;;;50.67;6.00;;;;;;;8.21;77.73;99585.50;5033575;28;20032;-49
2022/02/17 03:41:08;;;;;;;52.35;5.70;;;;;;;8.17;78.58;99600.31;5033574;28;20038;-49
2022/02/17 03:43:33;;;;;;;50.38;5.40;;;;;;;8.16;79.13;99610.19;5051094;28;20082;-47
2022/02/17 03:45:58;;;;;;;60.75;6.63;;;;;;;8.11;79.87;99608.13;5051150;28;20048;-46
2022/02/17 03:48:24;;;;;;;55.30;6.05;;;;;;;8.06;80.08;99615.91;5050696;28;20082;-46
2022/02/17 03:50:49;;;;;;;46.17;5.53;;;;;;;8.05;80.26;99614.25;5050961;28;20112;-48
2022/02/17 03:53:14;;;;;;;50.95;5.70;;;;;;;8.06;79.85;99621.28;5050443;28;20060;-49
2022/02/17 03:55:40;;;;;;;45.53;5.72;;;;;;;8.04;79.44;99639.41;5053389;28;20456;-46
2022/02/17 03:58:05;;;;;;;53.58;5.63;;;;;;;8.04;80.02;99652.78;5054591;28;20479;-45
2022/02/17 04:00:30;;;;;;;51.80;6.70;;;;;;;8.02;80.77;99660.19;5046953;28;20052;-44
2022/02/17 04:02:56;;;;;;;58.25;6.97;;;;;;;8.01;80.97;99665.75;5055252;28;20106;-50
2022/02/17 04:05:21;;;;;;;50.63;6.10;;;;;;;8.00;79.74;99674.81;5037108;28;20438;-50
2022/02/17 04:07:48;;;;;;;60.03;5.53;;;;;;;8.02;79.34;99662.88;5055834;28;20131;-51
2022/02/17 04:10:13;;;;;;;50.70;5.97;;;;;;;8.04;79.32;99695.66;5072012;28;20029;-47
2022/02/17 04:12:39;;;;;;;40.92;5.88;;;;;;;8.03;78.82;99666.38;5070264;28;20056;-45
2022/02/17 04:15:05;;;;;;;49.22;5.95;;;;;;;8.06;77.74;99674.88;5038308;28;20032;-46
2022/02/17 04:17:30;;;;;;;54.88;5.40;;;;;;;8.09;76.99;99681.69;5055438;28;20024;-45
2022/02/17 04:19:55;;;;;;;56.90;5.85;;;;;;;8.14;76.76;99698.03;5072994;28;20063;-45
2022/02/17 04:22:21;;;;;;;40.20;5.07;;;;;;;8.17;75.99;99689.59;5055150;28;20112;-49
2022/02/17 04:24:46;;;;;;;49.80;4.68;;;;;;;8.18;76.00;99719.91;5062851;28;20045;-47
2022/02/17 04:27:11;;;;;;;48.85;6.20;;;;;;;8.12;76.62;99727.69;5061796;28;20040;-45
2022/02/17 04:29:37;;;;;;;55.08;6.15;;;;;;;8.10;77.42;99744.97;5064935;28;20017;-45
2022/02/17 04:32:03;;;;;;;61.60;6.78;;;;;;;8.05;78.49;99744.72;5054802;28;20038;-45
2022/02/17 04:34:28;;;;;;;66.40;7.28;;;;;;;8.04;79.54;99751.94;5057243;28;20116;-46
2022/02/17 04:36:54;;;;;;;49.85;5.72;;;;;;;8.01;80.66;99746.97;5038636;28;20052;-43
2022/02/17 04:39:19;;;;;;;66.95;7.82;;;;;;;7.98;82.14;99752.72;5043987;28;20028;-46
2022/02/17 04:44:28;;;;;;;79.55;9.77;;;;;;;7.99;83.37;99770.44;5057360;28;20051;-45
2022/02/17 04:46:53;;;;;;;76.95;9.20;;;;;;;8.00;83.20;99753.31;5063635;28;20488;-45
2022/02/17 04:49:18;;;;;;;62.88;7.18;;;;;;;8.05;82.94;99758.13;5055589;28;20348;-45
2022/02/17 04:51:44;;;;;;;71.57;8.05;;;;;;;8.07;82.34;99748.88;5054336;28;20021;-45
2022/02/17 04:54:09;;;;;;;59.97;7.35;;;;;;;8.07;81.38;99756.91;5069480;28;20024;-44
2022/02/17 04:56:34;;;;;;;68.80;7.22;;;;;;;8.13;80.29;99785.59;5064875;28;20052;-44
2022/02/17 04:59:00;;;;;;;54.38;7.07;;;;;;;8.19;79.20;99781.34;5050378;28;20025;-47
2022/02/17 05:01:25;;;;;;;49.97;5.13;;;;;;;8.30;76.02;99785.38;5062690;28;20106;-49
2022/02/17 05:03:51;;;;;;;42.95;4.57;;;;;;;8.43;73.13;99798.09;5058684;28;20090;-49
2022/02/17 05:06:16;;;;;;;45.55;5.32;;;;;;;8.49;72.71;99808.03;5055362;28;20517;-47
2022/02/17 05:08:41;;;;;;;47.28;6.00;;;;;;;8.52;73.91;99821.88;5065553;28;20025;-45
2022/02/17 05:11:07;;;;;;;59.65;6.82;;;;;;;8.49;75.62;99837.53;5057611;28;20441;-46
2022/02/17 05:13:33;;;;;;;60.42;6.47;;;;;;;8.45;75.84;99817.47;5067364;28;20479;-45
2022/02/17 05:15:59;;;;;;;47.95;4.82;;;;;;;8.45;75.19;99839.78;5038480;28;20111;-47
2022/02/17 05:18:24;;;;;;;47.33;5.00;;;;;;;8.48;73.39;99843.94;5037630;28;20454;-45
2022/02/17 05:20:49;;;;;;;42.28;5.25;;;;;;;8.50;71.09;99853.41;5069123;28;20033;-46
2022/02/17 05:23:15;;;;;;;28.13;3.70;;;;;;;8.52;70.68;99850.56;5054251;28;20028;-49
2022/02/17 05:25:40;;;;;;;35.08;4.28;;;;;;;8.53;70.14;99863.78;5073860;28;20028;-46
2022/02/17 05:28:06;;;;;;;39.22;4.78;;;;;;;8.51;71.90;99865.00;5069227;28;20429;-48
2022/02/17 05:30:41;;;;;;;46.95;5.55;;;;;;;8.43;73.08;99878.53;5052734;28;20432;-50
2022/02/17 05:33:10;;;;;;;56.25;6.00;;;;;;;8.35;74.77;99898.22;5044597;28;20091;-46
2022/02/17 05:35:36;;;;;;;63.40;7.00;;;;;;;8.28;76.50;99891.94;5057354;28;20025;-48
2022/02/17 05:38:01;;;;;;;53.38;6.65;;;;;;;8.19;77.26;99893.06;5073906;28;20374;-49
2022/02/17 05:40:26;;;;;;;60.28;6.50;;;;;;;8.12;77.78;99904.56;5053704;28;20025;-48
2022/02/17 05:42:52;;;;;;;53.95;5.72;;;;;;;8.07;76.70;99896.25;5036858;28;20170;-49
2022/02/17 05:45:17;;;;;;;51.50;6.20;;;;;;;8.07;76.48;99900.78;5054655;28;20025;-47
2022/02/17 05:47:42;;;;;;;43.50;5.38;;;;;;;8.02;76.99;99919.28;5056371;28;20032;-45
2022/02/17 05:50:08;;;;;;;51.97;6.07;;;;;;;7.99;76.23;99911.63;5054189;28;20112;-43
2022/02/17 05:52:34;;;;;;;45.15;5.32;;;;;;;8.03;74.76;99919.09;5035916;28;20029;-48
2022/02/17 05:54:59;;;;;;;56.13;5.60;;;;;;;7.98;75.04;99940.28;5018945;28;20036;-46
2022/02/17 05:57:25;;;;;;;40.60;5.40;;;;;;;7.99;74.98;99938.41;5064963;28;20509;-47
2022/02/17 05:59:50;;;;;;;51.38;5.20;;;;;;;7.94;74.78;99938.97;5053656;28;20341;-45
2022/02/17 06:02:15;;;;;;;46.00;4.80;;;;;;;7.90;75.44;99954.59;5054647;28;20033;-45
2022/02/17 06:04:43;;;;;;;41.90;4.47;;;;;;;7.88;75.49;99940.56;5053250;28;20033;-44
2022/02/17 06:07:10;;;;;;;45.17;6.65;;;;;;;7.85;75.73;99953.50;5071278;28;20076;-46
2022/02/17 06:09:35;;;;;;;53.35;6.35;;;;;;;7.81;75.63;99952.19;5064457;28;20454;-47
2022/02/17 06:12:01;;;;;;;46.42;4.70;;;;;;;7.83;75.47;99953.69;5039052;28;20056;-45
2022/02/17 06:14:26;;;;;;;37.47;4.22;;;;;;;7.90;74.67;99964.50;5060938;28;20021;-46
2022/02/17 06:16:51;;;;;;;32.80;3.85;;;;;;;7.90;74.81;99986.75;5067442;28;20021;-45
2022/02/17 06:19:17;;;;;;;38.95;5.38;;;;;;;7.89;74.00;99968.16;5038839;28;20032;-45
2022/02/17 06:21:42;;;;;;;39.53;6.95;;;;;;;7.87;73.90;99980.91;5051737;28;20349;-47
2022/02/17 06:24:07;;;;;;;41.72;4.35;;;;;;;7.88;73.93;99982.59;5049062;28;20033;-46
2022/02/17 06:26:33;;;;;;;39.75;4.63;;;;;;;7.88;74.00;99990.63;5061571;28;20029;-46
2022/02/17 06:28:58;;;;;;;33.83;4.13;;;;;;;7.90;74.05;100010.03;5052259;28;20411;-45
2022/02/17 06:31:24;;;;;;;36.72;4.05;;;;;;;7.89;73.63;100005.69;5034693;28;20036;-46
2022/02/17 06:33:49;;;;;;;37.55;4.13;;;;;;;7.87;73.61;100021.09;5046093;28;20086;-45
2022/02/17 06:36:17;;;;;;;42.17;4.30;;;;;;;7.85;73.33;100031.19;5057061;28;20025;-46
2022/02/17 06:38:43;;;;;;;36.92;4.18;;;;;;;7.82;72.46;100039.56;5050558;28;20044;-48
2022/02/17 06:41:08;;;;;;;50.65;4.40;;;;;;;7.80;72.58;100029.06;5031987;28;20029;-46
2022/02/17 06:43:36;;;;;;;33.25;4.50;;;;;;;7.78;72.83;100040.97;5032563;28;20067;-47
2022/02/17 06:46:02;;;;;;;40.33;5.75;;;;;;;7.74;72.84;100055.72;5024519;28;20053;-48
2022/02/17 06:48:28;;;;;;;27.48;3.38;;;;;;;7.73;72.61;100029.97;5050928;28;20170;-48
2022/02/17 06:50:53;;;;;;;44.28;4.47;;;;;;;7.73;73.19;100054.06;5053964;28;20107;-45
2022/02/17 06:53:19;;;;;;;36.03;4.03;;;;;;;7.68;73.22;100079.53;5051057;28;20078;-45
2022/02/17 06:55:47;;;;;;;34.55;4.90;;;;;;;7.70;72.26;100082.06;5051338;28;20037;-45
2022/02/17 06:58:15;;;;;;;35.53;4.78;;;;;;;7.69;72.39;100081.22;5042406;28;20055;-49
2022/02/17 07:00:40;;;;;;;40.07;4.00;;;;;;;7.69;71.75;100091.94;5051540;28;20053;-45
2022/02/17 07:03:06;;;;;;;34.25;5.03;;;;;;;7.70;70.80;100077.53;5051013;28;20032;-49
2022/02/17 07:05:32;;;;;;;36.95;4.90;;;;;;;7.66;70.85;100103.03;5050682;28;20025;-45
2022/02/17 07:07:58;;;;;;;23.65;3.13;;;;;;;7.66;70.02;100097.66;5032103;28;20119;-44
2022/02/17 07:13:07;;;;;;;42.20;4.85;;;;;;;7.64;70.73;100102.38;5031423;28;20521;-44
2022/02/17 07:15:35;;;;;;;33.75;3.95;;;;;;;7.65;71.45;100136.16;5033442;28;20116;-46
2022/02/17 07:18:08;;;;;;;49.28;4.45;;;;;;;7.65;72.64;100138.00;5031470;28;20040;-48
2022/02/17 07:20:37;;;;;;;47.85;4.75;;;;;;;7.67;72.92;100139.50;5031464;28;20029;-45
2022/02/17 07:23:02;;;;;;;36.72;4.20;;;;;;;7.69;72.51;100145.50;5031200;28;20399;-45
2022/02/17 07:25:28;;;;;;;34.30;4.00;;;;;;;7.76;71.86;100160.84;4997200;28;20033;-45
2022/02/17 07:27:53;;;;;;;34.38;3.50;;;;;;;7.80;71.29;100170.19;5026752;28;20041;-48
2022/02/17 07:30:19;;;;;;;38.05;4.75;;;;;;;7.82;71.23;100181.53;5030572;28;20444;-46
2022/02/17 07:32:44;;;;;;;29.77;3.42;;;;;;;7.86;70.86;100177.50;5051169;28;20043;-48
2022/02/17 07:35:10;;;;;;;28.38;3.97;;;;;;;7.97;69.67;100169.03;5038638;28;20052;-44
2022/02/17 07:37:36;;;;;;;25.33;3.45;;;;;;;8.03;69.36;100178.19;5030930;28;20025;-48
2022/02/17 07:40:03;;;;;;;26.45;3.05;;;;;;;8.11;68.36;100200.41;5033738;28;20048;-45
2022/02/17 07:42:28;;;;;;;21.67;3.70;;;;;;;8.27;67.14;100198.59;5049361;28;20115;-46
2022/02/17 07:44:56;;;;;;;30.98;3.60;;;;;;;8.42;66.99;100198.63;5031051;28;20136;-45
2022/02/17 07:47:23;;;;;;;40.33;4.55;;;;;;;8.35;68.36;100201.19;5029624;28;20061;-46
2022/02/17 07:49:48;;;;;;;39.00;4.00;;;;;;;8.39;68.66;100213.22;5030852;28;20037;-46
2022/02/17 07:52:14;;;;;;;34.58;4.00;;;;;;;8.38;68.95;100216.91;5031210;28;20021;-46
2022/02/17 07:54:39;;;;;;;28.85;3.38;;;;;;;8.49;68.86;100211.13;5030996;28;20040;-46
2022/02/17 07:57:05;;;;;;;30.73;3.17;;;;;;;8.65;66.71;100225.38;5030489;28;20038;-47
2022/02/17 07:59:31;;;;;;;33.60;3.60;;;;;;;8.76;66.65;100222.22;5031063;28;20465;-47
2022/02/17 08:01:56;;;;;;;29.83;2.60;;;;;;;9.15;63.12;100238.00;5031603;28;20025;-46
2022/02/17 08:04:22;;;;;;;29.35;3.33;;;;;;;9.42;62.44;100239.16;5041027;28;20056;-46
2022/02/17 08:06:47;;;;;;;31.00;3.70;;;;;;;9.74;60.22;100255.84;5035241;28;20087;-43
2022/02/17 08:09:12;;;;;;;24.25;3.25;;;;;;;9.94;59.94;100265.97;5051430;28;20116;-48
2022/02/17 08:11:38;;;;;;;28.45;3.45;;;;;;;10.20;59.21;100263.50;5032553;28;20029;-47
2022/02/17 08:14:03;;;;;;;27.10;3.75;;;;;;;10.50;58.11;100274.94;5050699;28;20031;-46
2022/02/17 08:16:29;;;;;;;23.70;3.10;;;;;;;11.09;56.25;100278.25;5049950;28;20025;-46
2022/02/17 08:18:54;;;;;;;23.13;3.13;;;;;;;11.34;54.97;100297.41;5050698;28;20029;-50
2022/02/17 08:21:20;;;;;;;21.42;3.15;;;;;;;12.06;52.14;100301.44;5050653;28;20472;-48
2022/02/17 08:23:45;;;;;;;27.23;3.00;;;;;;;12.18;51.56;100288.97;5049854;28;20179;-47
2022/02/17 08:26:10;;;;;;;21.30;2.97;;;;;;;12.61;51.51;100293.13;5049863;28;20036;-50
2022/02/17 08:28:36;;;;;;;18.13;3.53;;;;;;;13.00;48.40;100291.41;5047796;28;20368;-47
2022/02/17 08:31:01;;;;;;;20.98;3.45;;;;;;;12.87;49.71;100313.88;5056315;28;20028;-45
2022/02/17 08:33:26;;;;;;;20.98;2.88;;;;;;;12.78;50.96;100320.56;5053350;28;20028;-45
2022/02/17 08:35:52;;;;;;;25.65;3.38;;;;;;;13.04;49.97;100319.69;5052585;28;20074;-45
2022/02/17 08:38:18;;;;;;;30.20;3.40;;;;;;;12.68;50.57;100304.75;5050752;28;20075;-46
2022/02/17 08:40:44;;;;;;;24.50;3.97;;;;;;;12.28;51.96;100320.94;5046411;28;20384;-45
2022/02/17 08:43:10;;;;;;;28.48;3.35;;;;;;;12.54;51.75;100332.81;5052707;28;20036;-47
2022/02/17 08:45:42;;;;;;;31.60;3.88;;;;;;;12.60;52.57;100334.69;5062030;28;20072;-47
2022/02/17 08:48:09;;;;;;;29.33;4.47;;;;;;;12.81;52.69;100339.03;5049970;28;20497;-45
2022/02/17 08:50:35;;;;;;;28.73;4.30;;;;;;;13.36;50.60;100324.19;5062594;28;20032;-46
2022/02/17 08:53:01;;;;;;;27.50;3.95;;;;;;;13.34;49.70;100326.28;5036005;28;20049;-45
2022/02/17 08:55:26;;;;;;;20.05;3.42;;;;;;;13.63;49.54;100337.59;5023849;28;20082;-46
2022/02/17 08:57:53;;;;;;;32.58;4.22;;;;;;;13.08;50.74;100329.00;5037650;28;20482;-46
2022/02/17 09:00:19;;;;;;;32.47;3.75;;;;;;;13.25;51.28;100315.91;5053775;28;20108;-45
2022/02/17 09:02:44;;;;;;;28.65;3.90;;;;;;;13.54;51.13;100347.03;5054428;28;20119;-46
2022/02/17 09:05:10;;;;;;;30.25;4.43;;;;;;;13.39;51.47;100356.19;5048252;28;20119;-45
2022/02/17 09:07:35;;;;;;;29.38;4.38;;;;;;;13.61;50.37;100355.91;5053151;28;20048;-49
2022/02/17 09:10:01;;;;;;;31.13;4.13;;;;;;;13.65;51.47;100370.69;5054070;28;20114;-44
2022/02/17 09:12:30;;;;;;;28.55;4.50;;;;;;;13.89;49.66;100371.00;5054202;28;20103;-44
2022/02/17 09:14:55;;;;;;;27.75;3.65;;;;;;;13.78;49.19;100375.22;5053287;28;20448;-45
2022/02/17 09:17:21;;;;;;;36.58;3.80;;;;;;;14.18;47.91;100378.53;5053287;28;20068;-47
2022/02/17 09:19:46;;;;;;;29.15;4.18;;;;;;;14.18;46.38;100385.84;5053221;28;20480;-44
2022/02/17 09:22:12;;;;;;;22.88;4.07;;;;;;;14.29;46.88;100387.84;5053026;28;20033;-46
2022/02/17 09:24:37;;;;;;;23.23;3.45;;;;;;;14.54;45.46;100385.22;5053018;28;20033;-45
2022/02/17 09:27:03;;;;;;;27.98;3.88;;;;;;;14.60;45.93;100406.00;5052225;28;20028;-48
2022/02/17 09:29:29;;;;;;;26.30;3.95;;;;;;;14.23;46.28;100404.97;5053920;28;20040;-45
2022/02/17 09:31:54;;;;;;;23.42;3.47;;;;;;;14.13;46.77;100394.59;5053340;28;20075;-47
2022/02/17 09:34:19;;;;;;;31.05;3.38;;;;;;;13.98;46.37;100402.16;5052743;28;20468;-46
2022/02/17 09:36:45;;;;;;;28.92;4.43;;;;;;;13.71;47.28;100398.75;5017560;28;20033;-48
2022/02/17 09:39:10;;;;;;;26.92;3.83;;;;;;;13.26;48.57;100421.09;5040474;28;20036;-45
2022/02/17 09:41:36;;;;;;;28.52;3.83;;;;;;;13.42;47.87;100409.00;5030398;28;20025;-46
2022/02/17 09:44:07;;;;;;;37.45;4.30;;;;;;;13.57;47.31;100422.28;5051898;28;20029;-45
2022/02/17 09:46:33;;;;;;;21.83;3.65;;;;;;;13.58;47.57;100430.16;5042475;28;20044;-47
2022/02/17 09:49:01;;;;;;;25.42;3.28;;;;;;;13.04;47.83;100417.75;5037194;28;20830;-46
2022/02/17 09:51:30;;;;;;;30.45;3.83;;;;;;;12.70;48.96;100432.28;5035763;28;20036;-46
2022/02/17 09:53:56;;;;;;;33.63;3.80;;;;;;;12.90;49.24;100437.69;5037346;28;20071;-45
2022/02/17 09:56:22;;;;;;;29.30;3.80;;;;;;;12.96;51.03;100448.50;5034512;28;20155;-47
2022/02/17 09:58:49;;;;;;;31.88;3.70;;;;;;;13.11;50.96;100460.97;5063572;28;20109;-45
2022/02/17 10:01:17;;;;;;;41.17;4.65;;;;;;;12.65;51.73;100468.00;5052287;28;20037;-47
2022/02/17 10:03:43;;;;;;;25.80;4.00;;;;;;;13.16;51.74;100472.00;5062436;28;20040;-46
2022/02/17 10:06:10;;;;;;;34.38;3.95;;;;;;;13.12;49.48;100478.88;5035762;28;20029;-44
2022/02/17 10:08:37;;;;;;;29.27;3.75;;;;;;;12.86;51.13;100482.38;5053373;28;20025;-47
2022/02/17 10:11:03;;;;;;;27.27;4.03;;;;;;;12.80;51.09;100494.84;5053840;28;20131;-43
2022/02/17 10:13:29;;;;;;;39.00;4.10;;;;;;;12.59;52.21;100495.81;5036427;28;20059;-46
2022/02/17 10:15:58;;;;;;;28.20;4.20;;;;;;;12.66;52.78;100510.16;5053721;28;20049;-46
2022/02/17 10:18:27;;;;;;;34.33;4.18;;;;;;;12.72;53.35;100500.44;5052805;28;20037;-46
2022/02/17 10:21:08;;;;;;;31.00;4.07;;;;;;;12.36;53.05;100506.94;5040125;28;20152;-50
2022/02/17 10:23:41;;;;;;;30.02;3.20;;;;;;;11.98;54.23;100493.94;5058860;28;20025;-45
2022/02/17 10:26:18;;;;;;;28.25;3.33;;;;;;;12.22;53.29;100502.56;5034176;28;20071;-45
2022/02/17 10:29:03;;;;;;;29.57;3.53;;;;;;;12.43;52.29;100507.81;5033125;28;20119;-47
2022/02/17 10:31:31;;;;;;;31.52;3.47;;;;;;;12.25;52.67;100512.94;5036206;28;20025;-45
2022/02/17 10:33:58;;;;;;;25.95;3.75;;;;;;;11.88;54.35;100511.50;5028888;28;20136;-48
2022/02/17 10:36:42;;;;;;;31.23;4.35;;;;;;;11.89;55.28;100519.38;5036904;28;20025;-46
2022/02/17 10:39:12;;;;;;;38.25;4.35;;;;;;;12.02;56.16;100527.53;5056757;28;20029;-47
2022/02/17 10:42:03;;;;;;;30.08;3.55;;;;;;;11.89;55.62;100535.56;5052960;28;20025;-45
2022/02/17 10:44:30;;;;;;;38.47;4.15;;;;;;;12.13;56.37;100536.13;5035453;28;20499;-44
2022/02/17 10:46:56;;;;;;;30.58;3.72;;;;;;;12.38;55.80;100521.09;5055307;28;20098;-47
2022/02/17 10:49:22;;;;;;;45.63;3.85;;;;;;;12.29;54.55;100543.88;5059265;28;20048;-45
2022/02/17 10:51:49;;;;;;;31.02;3.42;;;;;;;12.32;56.12;100551.56;5047103;28;20028;-46
2022/02/17 10:54:21;;;;;;;31.20;3.58;;;;;;;12.45;55.54;100558.88;5067773;28;20028;-45
2022/02/17 10:56:51;;;;;;;29.58;3.80;;;;;;;12.42;54.42;100554.72;5053503;28;20036;-46
2022/02/17 11:02:02;;;;;;;35.58;4.10;;;;;;;12.91;53.55;100569.03;5049227;28;20070;-44
2022/02/17 11:04:28;;;;;;;30.88;4.70;;;;;;;12.91;53.57;100561.75;5043778;28;20363;-48
2022/02/17 11:06:53;;;;;;;34.83;3.78;;;;;;;12.86;53.88;100566.94;5054275;28;20095;-47
2022/02/17 11:09:19;;;;;;;35.08;3.72;;;;;;;13.30;53.84;100565.59;5055565;28;20028;-47
2022/02/17 11:11:52;;;;;;;32.47;3.83;;;;;;;13.03;53.12;100570.06;5052647;28;20048;-47
2022/02/17 11:14:49;;;;;;;36.55;4.53;;;;;;;12.26;54.95;100600.94;5034715;28;20017;-47
2022/02/17 11:17:15;;;;;;;35.90;4.57;;;;;;;12.23;56.22;100567.09;4998009;28;20079;-45
2022/02/17 11:19:41;;;;;;;49.08;4.90;;;;;;;12.17;56.83;100588.66;5061297;28;20036;-45
2022/02/17 11:22:06;;;;;;;40.13;4.80;;;;;;;12.17;56.03;100594.03;5039580;28;20033;-46
2022/02/17 11:24:47;;;;;;;31.80;3.75;;;;;;;12.16;56.30;100587.78;5059260;28;20022;-47
2022/02/17 11:27:13;;;;;;;31.90;4.78;;;;;;;12.50;56.08;100595.03;5049875;28;20491;-48
2022/02/17 11:29:41;;;;;;;35.88;4.32;;;;;;;12.55;55.31;100589.03;5059242;28;20048;-50
2022/02/17 11:32:08;;;;;;;25.77;4.00;;;;;;;13.02;53.96;100602.72;5050899;28;20025;-46